Greenfield Township, Maine
Current Conditions -  °F | °C
As of 6:53 AM on Monday 20 Oct 2014 (Local Time) from KBGR Reporting Station
Broken Clouds Broken Clouds  
Wind Chill: 32°   Ceiling: 3900
Heat Index: 39°   Visibility: 10mi
Dew Point: 26°   Wind: 10mph
Humidity: 60%   Direction: 290°WNW
Pressure: 29.89"   Gusts: NA
Location:  45.0802°N, 68.5883°W
Report Text: KBGR 201053Z 29009KT 10SM BKN039 BKN180 04/M03 A2989 RMK AO2 SLP122 T00391033
Loading
Personal Weather Stations






























Interactive Weather Map
Tropical Storm Tracking
New forecast layout! Learn more

10-Day Weather Forecast

Advertisements
Track Severe Weather on mobile